Time;durP1;ratioP1;P1;durP2;ratioP2;P2;SDS_P1;SDS_P2;PMS_P1;PMS_P2;Temp;Humidity;BMP_temperature;BMP_pressure;BME280_temperature;BME280_humidity;BME280_pressure;Samples;Min_cycle;Max_cycle;Signal;HPM_P1;HPM_P2
2022/05/07 06:33:28;;;;;;;6.57;5.97;;;16.80;93.80;;;;;;6083588;22;20183;-66
2022/05/07 06:35:56;;;;;;;6.15;5.75;;;16.80;97.40;;;;;;5014519;28;20237;-68
2022/05/07 06:38:23;;;;;;;5.95;5.35;;;17.00;95.20;;;;;;5015259;28;20305;-68
2022/05/07 06:40:51;;;;;;;6.40;5.80;;;17.10;93.90;;;;;;5015042;28;20297;-68
2022/05/07 06:43:18;;;;;;;6.35;5.85;;;17.30;91.20;;;;;;5015078;28;20229;-68
2022/05/07 06:45:45;;;;;;;6.90;6.28;;;17.40;91.30;;;;;;5014714;28;20310;-68
2022/05/07 06:48:13;;;;;;;6.13;5.53;;;17.70;90.40;;;;;;5020102;28;20209;-68
2022/05/07 06:50:40;;;;;;;5.95;5.45;;;18.10;84.80;;;;;;5021058;28;20225;-67
2022/05/07 06:53:09;;;;;;;6.30;5.80;;;18.80;78.80;;;;;;5020607;28;20226;-67
2022/05/07 06:55:54;;;;;;;5.72;5.22;;;19.50;70.10;;;;;;5019768;28;20265;-67
2022/05/07 06:58:22;;;;;;;6.00;5.50;;;20.10;63.40;;;;;;5019119;28;20186;-67
2022/05/07 07:00:49;;;;;;;6.10;5.50;;;20.90;56.40;;;;;;5020310;28;20213;-67
2022/05/07 07:03:16;;;;;;;6.45;5.80;;;21.50;55.00;;;;;;5019351;28;20285;-67
2022/05/07 07:05:44;;;;;;;8.13;6.20;;;22.30;51.30;;;;;;5018843;28;20201;-66
2022/05/07 07:08:13;;;;;;;5.95;5.40;;;22.90;46.90;;;;;;5018487;28;20276;-66
2022/05/07 07:10:41;;;;;;;6.63;6.03;;;23.40;44.60;;;;;;5019474;28;20202;-67
2022/05/07 07:13:08;;;;;;;7.00;5.70;;;24.00;42.50;;;;;;5019121;28;20300;-67
2022/05/07 07:15:39;;;;;;;6.68;5.97;;;24.40;38.30;;;;;;5018805;28;20293;-68
2022/05/07 07:18:09;;;;;;;6.07;5.68;;;24.70;38.10;;;;;;5018672;28;20186;-67
2022/05/07 07:20:40;;;;;;;6.53;6.03;;;24.80;36.90;;;;;;5015434;28;20594;-68
2022/05/07 07:23:11;;;;;;;5.15;4.75;;;24.90;36.10;;;;;;5014383;28;20312;-68
2022/05/07 07:25:40;;;;;;;5.90;5.50;;;;;;;;;;5013988;28;20217;-68
2022/05/07 07:28:08;;;;;;;5.55;5.15;;;25.90;33.50;;;;;;5013697;28;20292;-68
2022/05/07 07:30:35;;;;;;;6.25;5.75;;;26.80;32.60;;;;;;5014175;28;20568;-68
2022/05/07 07:33:02;;;;;;;6.13;5.53;;;27.60;30.00;;;;;;5014080;28;20225;-68
2022/05/07 07:35:29;;;;;;;5.78;5.18;;;27.60;29.30;;;;;;5013642;28;20393;-67
2022/05/07 07:37:56;;;;;;;5.80;5.30;;;27.00;30.00;;;;;;5013729;28;20292;-67
2022/05/07 07:40:23;;;;;;;7.22;6.13;;;26.40;30.60;;;;;;5013720;28;20706;-67
2022/05/07 07:42:51;;;;;;;5.75;5.25;;;25.80;31.50;;;;;;5014081;28;20237;-68
2022/05/07 07:48:01;;;;;;;5.43;4.93;;;24.50;32.90;;;;;;4991607;28;20294;-67
2022/05/07 07:50:31;;;;;;;6.45;5.65;;;23.70;35.10;;;;;;5013608;28;20696;-67
2022/05/07 07:52:59;;;;;;;5.80;5.38;;;23.40;35.60;;;;;;5013440;28;20570;-67
2022/05/07 07:55:27;;;;;;;7.00;5.00;;;23.00;37.50;;;;;;5013818;28;20308;-67
2022/05/07 07:57:56;;;;;;;4.88;4.47;;;22.60;38.70;;;;;;5013816;28;20297;-67
2022/05/07 08:00:24;;;;;;;5.22;4.82;;;22.30;37.40;;;;;;5013908;28;20211;-66
2022/05/07 08:02:52;;;;;;;5.20;4.80;;;21.80;41.20;;;;;;5013733;28;20317;-67
2022/05/07 08:05:22;;;;;;;5.55;5.13;;;21.60;41.50;;;;;;5013591;28;20656;-67
2022/05/07 08:13:19;;;;;;;3.72;3.53;;;21.20;43.20;;;;;;5013593;28;20220;-66
2022/05/07 08:15:46;;;;;;;4.07;3.83;;;21.10;42.10;;;;;;5013847;28;20313;-66
2022/05/07 08:18:13;;;;;;;4.20;3.88;;;21.00;43.20;;;;;;5014010;28;20209;-67
2022/05/07 08:20:41;;;;;;;3.95;3.65;;;21.00;44.20;;;;;;5013633;28;20297;-66
2022/05/07 08:23:08;;;;;;;4.13;3.83;;;21.00;44.80;;;;;;5013149;28;20719;-66
2022/05/07 08:25:35;;;;;;;5.18;4.80;;;21.10;44.40;;;;;;5013619;28;20300;-66
2022/05/07 08:28:02;;;;;;;4.47;4.10;;;21.10;43.10;;;;;;5013434;28;20252;-67
2022/05/07 08:30:30;;;;;;;3.80;3.60;;;21.10;44.60;;;;;;5013448;28;20289;-67
2022/05/07 08:32:57;;;;;;;4.40;4.00;;;21.20;45.00;;;;;;5013400;28;20308;-67
2022/05/07 08:35:24;;;;;;;4.05;3.85;;;21.30;44.50;;;;;;5012959;28;20634;-67
2022/05/07 08:37:51;;;;;;;4.05;3.67;;;21.20;43.50;;;;;;5014708;28;20208;-67
2022/05/07 08:40:20;;;;;;;3.90;3.70;;;21.30;44.50;;;;;;5018264;28;20224;-67
2022/05/07 08:42:47;;;;;;;5.80;4.13;;;21.20;42.50;;;;;;5017268;28;20320;-66
2022/05/07 08:45:14;;;;;;;3.45;3.25;;;21.00;43.00;;;;;;5017486;28;20280;-65
2022/05/07 08:47:43;;;;;;;4.97;4.68;;;20.70;42.80;;;;;;5017384;28;20288;-66
2022/05/07 08:50:11;;;;;;;4.90;4.20;;;20.50;40.70;;;;;;5017260;28;20237;-67
2022/05/07 08:52:41;;;;;;;4.95;3.63;;;20.10;42.30;;;;;;5017162;28;20293;-67
2022/05/07 08:55:10;;;;;;;3.70;3.40;;;19.90;45.60;;;;;;5016797;28;20213;-66
2022/05/07 08:57:37;;;;;;;3.85;3.50;;;19.90;45.00;;;;;;5017108;28;20293;-66
2022/05/07 09:00:05;;;;;;;4.05;3.65;;;20.00;45.20;;;;;;5016970;28;20668;-66
2022/05/07 09:02:38;;;;;;;3.50;3.20;;;20.00;44.70;;;;;;5016842;28;20263;-67
2022/05/07 09:05:07;;;;;;;3.70;3.50;;;20.00;44.60;;;;;;5017240;28;20178;-65
2022/05/07 09:07:34;;;;;;;3.78;3.25;;;20.00;44.50;;;;;;5016940;28;20292;-65
2022/05/07 09:10:01;;;;;;;3.45;3.15;;;20.00;42.30;;;;;;5016758;28;20297;-66
2022/05/07 09:12:29;;;;;;;3.40;2.97;;;19.90;42.70;;;;;;5016506;28;20292;-66
2022/05/07 09:15:01;;;;;;;3.70;3.40;;;20.00;43.90;;;;;;5016456;28;20252;-67
2022/05/07 09:17:28;;;;;;;3.17;2.97;;;20.10;42.80;;;;;;5017205;28;20182;-66
2022/05/07 09:19:55;;;;;;;5.55;2.72;;;20.20;41.50;;;;;;5016562;28;20284;-66
2022/05/07 09:22:25;;;;;;;2.45;2.33;;;20.10;37.30;;;;;;5016642;28;20297;-65
2022/05/07 09:24:56;;;;;;;2.25;2.05;;;20.00;36.90;;;;;;5016666;28;20315;-69
2022/05/07 09:27:23;;;;;;;2.28;2.20;;;20.00;38.40;;;;;;5016735;28;20728;-66
2022/05/07 09:29:59;;;;;;;2.33;2.22;;;20.20;39.10;;;;;;5016343;28;20292;-65
2022/05/07 09:32:36;;;;;;;4.00;2.30;;;20.40;38.40;;;;;;5016016;28;20652;-68
2022/05/07 09:38:01;;;;;;;6.13;3.13;;;20.70;37.80;;;;;;5016269;28;20188;-67
2022/05/07 09:40:28;;;;;;;2.80;2.70;;;20.50;33.80;;;;;;5016217;28;20194;-67
2022/05/07 09:42:57;;;;;;;2.65;2.45;;;20.30;36.00;;;;;;5016082;28;20644;-67
2022/05/07 09:45:26;;;;;;;7.15;3.08;;;20.30;36.10;;;;;;5016156;28;20233;-67
2022/05/07 09:47:54;;;;;;;2.53;2.33;;;20.20;34.60;;;;;;5016030;28;20205;-67
2022/05/07 09:50:23;;;;;;;3.90;3.03;;;20.00;35.00;;;;;;5015194;28;20311;-67
2022/05/07 09:58:21;;;;;;;3.80;3.50;;;19.50;39.60;;;;;;5019615;28;20185;-65
2022/05/07 10:01:00;;;;;;;3.20;3.00;;;19.50;38.60;;;;;;5018415;28;20296;-66
2022/05/07 10:03:33;;;;;;;4.82;3.42;;;19.60;38.70;;;;;;5019976;28;20320;-65
2022/05/07 10:06:17;;;;;;;3.65;3.30;;;19.50;39.90;;;;;;5019678;28;20273;-65
2022/05/07 10:08:58;;;;;;;3.53;2.75;;;19.60;38.70;;;;;;5016589;28;20277;-65
2022/05/07 10:11:27;;;;;;;3.50;3.30;;;19.60;38.90;;;;;;5016055;28;20212;-65
2022/05/07 10:13:54;;;;;;;2.97;2.88;;;19.50;38.60;;;;;;5015386;28;20312;-65
2022/05/07 10:16:22;;;;;;;3.28;3.08;;;19.60;39.30;;;;;;5015196;28;20692;-65
2022/05/07 10:18:49;;;;;;;3.35;3.10;;;19.50;38.40;;;;;;5015570;28;20255;-65
2022/05/07 10:21:18;;;;;;;3.22;3.03;;;19.40;39.40;;;;;;5015621;28;20291;-66
2022/05/07 10:23:53;;;;;;;3.50;3.20;;;19.30;39.20;;;;;;5015847;28;20316;-67
2022/05/07 10:26:21;;;;;;;2.90;2.70;;;19.30;39.50;;;;;;5016242;28;20201;-65
2022/05/07 10:28:50;;;;;;;3.25;3.05;;;19.30;39.60;;;;;;5015652;28;20293;-66
2022/05/07 10:31:19;;;;;;;2.53;2.42;;;19.40;40.50;;;;;;5015549;28;20248;-64
2022/05/07 10:33:46;;;;;;;3.10;2.80;;;19.50;41.40;;;;;;5015026;28;20225;-65
2022/05/07 10:36:14;;;;;;;2.67;2.38;;;19.70;41.00;;;;;;5015674;28;20311;-67
2022/05/07 10:38:42;;;;;;;3.15;2.95;;;19.80;41.20;;;;;;5015595;28;20201;-67
2022/05/07 10:41:22;;;;;;;3.45;2.70;;;19.90;40.20;;;;;;5017256;28;20205;-67
2022/05/07 10:44:05;;;;;;;3.05;2.85;;;19.90;40.70;;;;;;5019721;28;20227;-67
2022/05/07 10:46:42;;;;;;;2.40;2.30;;;19.90;40.20;;;;;;5019307;28;20182;-67
2022/05/07 10:49:09;;;;;;;2.40;2.20;;;20.00;41.20;;;;;;5019076;28;20212;-68
2022/05/07 10:51:37;;;;;;;3.35;3.03;;;20.10;40.40;;;;;;5019694;28;20232;-67
2022/05/07 10:54:18;;;;;;;3.13;2.83;;;20.10;39.80;;;;;;5018667;28;20224;-67
2022/05/07 10:56:48;;;;;;;2.33;2.20;;;19.90;39.90;;;;;;5017710;28;20178;-68
2022/05/07 10:59:17;;;;;;;3.25;2.95;;;20.00;39.80;;;;;;5019045;28;20649;-68
2022/05/07 11:01:44;;;;;;;2.70;2.50;;;20.00;39.10;;;;;;5016832;28;20205;-65
2022/05/07 11:04:13;;;;;;;3.00;2.80;;;20.00;39.40;;;;;;5017084;28;20272;-65
2022/05/07 11:06:47;;;;;;;2.42;2.28;;;20.00;39.60;;;;;;5014251;28;20661;-65
2022/05/07 11:09:19;;;;;;;2.20;2.20;;;20.10;39.80;;;;;;5014522;28;20211;-65
2022/05/07 11:11:47;;;;;;;2.10;1.98;;;20.10;38.40;;;;;;5014577;28;20236;-65
2022/05/07 11:14:23;;;;;;;1.92;1.83;;;20.20;38.60;;;;;;5014450;28;20226;-65
2022/05/07 11:16:50;;;;;;;2.40;2.30;;;20.20;38.40;;;;;;5014220;28;20642;-65
2022/05/07 11:19:25;;;;;;;2.90;2.45;;;20.20;36.70;;;;;;5014122;28;20245;-65
2022/05/07 11:21:53;;;;;;;2.75;2.53;;;20.20;37.50;;;;;;5014484;28;20276;-65
2022/05/07 11:24:20;;;;;;;2.97;2.70;;;20.20;38.00;;;;;;5014459;28;20316;-65
2022/05/07 11:26:51;;;;;;;3.15;2.85;;;20.10;38.10;;;;;;5015091;28;20201;-65
2022/05/07 11:29:18;;;;;;;3.00;2.80;;;19.90;37.50;;;;;;5014560;28;20205;-65
2022/05/07 11:31:55;;;;;;;3.20;2.85;;;19.90;38.70;;;;;;5014678;28;20649;-66
2022/05/07 11:34:33;;;;;;;2.53;2.42;;;19.90;39.30;;;;;;5014639;28;20716;-66
2022/05/07 11:37:17;;;;;;;3.45;3.25;;;19.90;39.30;;;;;;5014960;28;20205;-66
2022/05/07 11:39:52;;;;;;;4.00;3.17;;;19.80;38.40;;;;;;5014464;28;20264;-65
2022/05/07 11:42:30;;;;;;;2.78;2.60;;;19.80;37.90;;;;;;5014311;28;20240;-66
2022/05/07 11:47:53;;;;;;;3.30;3.10;;;19.70;39.80;;;;;;5014389;28;20668;-67
2022/05/07 11:50:22;;;;;;;3.33;3.13;;;19.70;39.80;;;;;;5013977;28;20268;-67
2022/05/07 11:52:49;;;;;;;4.82;3.45;;;19.60;38.90;;;;;;5013934;28;20205;-67
2022/05/07 11:55:17;;;;;;;2.78;2.60;;;19.60;38.60;;;;;;5014565;28;20256;-66
2022/05/07 11:57:46;;;;;;;2.92;2.72;;;19.60;39.60;;;;;;5013907;28;20228;-67
2022/05/07 12:00:15;;;;;;;3.08;2.67;;;19.70;40.50;;;;;;5013822;28;20213;-66
2022/05/07 12:02:50;;;;;;;4.35;2.90;;;19.70;39.70;;;;;;5014020;28;20244;-68
2022/05/07 12:05:18;;;;;;;3.10;2.75;;;19.70;39.10;;;;;;5014951;28;20228;-69
2022/05/07 12:07:48;;;;;;;2.80;2.60;;;19.70;39.70;;;;;;5015317;28;20284;-69
2022/05/07 12:10:15;;;;;;;4.32;3.75;;;19.70;40.00;;;;;;5014151;28;20592;-66
2022/05/07 12:12:42;;;;;;;2.78;2.67;;;19.60;38.90;;;;;;5013713;28;20297;-66
2022/05/07 12:15:10;;;;;;;2.95;2.75;;;19.40;39.40;;;;;;5013914;28;20592;-67
2022/05/07 12:17:55;;;;;;;3.08;2.90;;;19.40;39.40;;;;;;5014461;28;20197;-67
2022/05/07 12:20:24;;;;;;;2.88;2.67;;;19.40;39.80;;;;;;5013884;28;20185;-67
2022/05/07 12:31:07;;;;;;;2.88;2.78;;;19.70;40.40;;;;;;5013881;28;20181;-66
2022/05/07 12:33:36;;;;;;;3.13;2.78;;;19.80;40.30;;;;;;5013983;28;20628;-66
2022/05/07 12:36:04;;;;;;;4.40;3.45;;;19.80;39.60;;;;;;5013160;28;20328;-67
2022/05/07 12:38:31;;;;;;;3.03;2.83;;;19.70;39.40;;;;;;5013258;28;20209;-66
2022/05/07 12:40:58;;;;;;;3.13;2.67;;;19.50;39.90;;;;;;5013689;28;20252;-66
2022/05/07 12:43:25;;;;;;;2.85;2.75;;;19.50;41.30;;;;;;5013384;28;20229;-66
2022/05/07 12:45:52;;;;;;;2.67;2.58;;;19.50;40.80;;;;;;5014118;28;20220;-68
2022/05/07 12:48:20;;;;;;;2.85;2.65;;;19.50;39.40;;;;;;5013928;28;20288;-69
2022/05/07 12:50:47;;;;;;;3.35;3.03;;;19.40;39.80;;;;;;5013049;28;20202;-67
2022/05/07 12:53:16;;;;;;;3.25;2.85;;;19.40;40.00;;;;;;5013468;28;20593;-67
2022/05/07 12:55:44;;;;;;;2.72;2.63;;;19.40;39.60;;;;;;5013372;28;20224;-68
2022/05/07 12:58:12;;;;;;;3.42;2.50;;;19.40;39.00;;;;;;5013480;28;20665;-68
2022/05/07 13:00:40;;;;;;;2.90;2.70;;;19.40;38.50;;;;;;5013012;28;20565;-69
2022/05/07 13:03:07;;;;;;;2.92;2.70;;;19.40;39.80;;;;;;5013670;28;20229;-69
2022/05/07 13:05:35;;;;;;;2.58;2.38;;;19.40;38.50;;;;;;5013441;28;20201;-69
2022/05/07 13:08:03;;;;;;;3.33;2.50;;;19.50;39.50;;;;;;5013472;28;20283;-69
2022/05/07 13:10:32;;;;;;;2.45;2.35;;;19.70;40.00;;;;;;5012905;28;20742;-69
2022/05/07 13:13:00;;;;;;;2.22;2.13;;;19.70;40.30;;;;;;5013070;28;20719;-69
2022/05/07 13:15:28;;;;;;;2.72;2.40;;;19.80;39.00;;;;;;5012610;28;20312;-69
2022/05/07 13:17:55;;;;;;;2.75;2.25;;;19.90;38.90;;;;;;5053378;23;20717;-66
2022/05/07 13:20:22;;;;;;;2.45;2.30;;;19.90;38.40;;;;;;5052638;28;20287;-66
2022/05/07 13:22:49;;;;;;;2.55;2.45;;;20.00;38.40;;;;;;5052466;28;20672;-65
2022/05/07 13:25:16;;;;;;;2.78;2.63;;;20.10;39.10;;;;;;5054416;28;20626;-66
2022/05/07 13:27:45;;;;;;;2.70;2.50;;;20.20;39.90;;;;;;5056208;28;20311;-66
2022/05/07 13:30:13;;;;;;;2.78;2.55;;;20.10;38.10;;;;;;5055926;28;20215;-66
2022/05/07 13:32:40;;;;;;;4.55;2.22;;;20.10;38.20;;;;;;5056142;28;20287;-66
2022/05/07 13:35:08;;;;;;;3.45;3.15;;;20.20;38.00;;;;;;5055979;28;20286;-66
2022/05/07 13:37:36;;;;;;;3.10;2.90;;;20.20;37.20;;;;;;5056078;28;20235;-66
2022/05/07 13:40:03;;;;;;;2.70;2.42;;;20.10;36.50;;;;;;5055981;28;20290;-66
2022/05/07 13:42:30;;;;;;;2.78;2.45;;;19.90;37.10;;;;;;5056177;28;20655;-66
2022/05/07 13:44:58;;;;;;;3.10;2.80;;;20.00;38.10;;;;;;5055751;28;20703;-66
2022/05/07 13:47:25;;;;;;;3.10;2.80;;;20.10;39.20;;;;;;5055889;28;20303;-64
2022/05/07 13:49:52;;;;;;;2.67;2.47;;;20.00;38.50;;;;;;5055898;28;20227;-66
2022/05/07 13:52:19;;;;;;;2.92;2.72;;;19.90;37.20;;;;;;5055961;28;20287;-65
2022/05/07 13:54:46;;;;;;;3.33;3.10;;;19.80;37.10;;;;;;5056110;28;20347;-66
2022/05/07 13:57:12;;;;;;;3.53;3.22;;;19.70;37.00;;;;;;5055873;28;20316;-66
2022/05/07 13:59:39;;;;;;;4.15;2.95;;;19.60;36.90;;;;;;5055894;28;20287;-66
2022/05/07 14:02:08;;;;;;;2.85;2.67;;;19.50;37.90;;;;;;5055885;28;20293;-66
2022/05/07 14:04:35;;;;;;;2.95;2.78;;;19.50;39.40;;;;;;5055915;28;20243;-66
2022/05/07 14:07:02;;;;;;;4.65;3.60;;;19.50;39.40;;;;;;5055686;28;20264;-67
2022/05/07 14:09:29;;;;;;;3.10;3.00;;;19.50;38.50;;;;;;5055727;28;20292;-65
2022/05/07 14:11:56;;;;;;;3.15;2.90;;;19.50;40.00;;;;;;5055548;28;20299;-67
2022/05/07 14:14:25;;;;;;;2.47;2.38;;;19.60;40.20;;;;;;5055546;28;20207;-66
2022/05/07 14:16:52;;;;;;;2.72;2.60;;;19.70;39.60;;;;;;5055026;28;20216;-67
2022/05/07 14:19:20;;;;;;;3.30;3.08;;;19.90;38.10;;;;;;5055408;28;20235;-66
2022/05/07 14:21:47;;;;;;;4.32;2.88;;;19.80;37.10;;;;;;5055368;28;20199;-66
2022/05/07 14:24:14;;;;;;;2.72;2.55;;;19.80;38.30;;;;;;5055424;28;20282;-64
2022/05/07 14:26:42;;;;;;;2.90;2.45;;;19.70;37.70;;;;;;5055006;28;20204;-67
2022/05/07 14:29:09;;;;;;;2.90;2.70;;;19.70;37.30;;;;;;5055267;28;20228;-66
2022/05/07 14:31:36;;;;;;;3.30;2.60;;;19.70;37.60;;;;;;5055255;28;20209;-66
2022/05/07 14:34:03;;;;;;;3.13;2.88;;;19.70;37.00;;;;;;5055265;28;20294;-70
2022/05/07 14:36:31;;;;;;;2.30;2.20;;;19.60;37.40;;;;;;5054874;28;20223;-70
2022/05/07 14:38:58;;;;;;;2.90;2.70;;;19.60;37.40;;;;;;5055243;28;20308;-70
2022/05/07 14:41:25;;;;;;;2.53;2.42;;;19.50;37.20;;;;;;5055205;28;20291;-72
2022/05/07 14:43:53;;;;;;;2.33;2.22;;;19.50;36.80;;;;;;5055059;28;20303;-71
2022/05/07 14:46:21;;;;;;;3.70;2.22;;;19.60;37.70;;;;;;5054639;28;20203;-68
2022/05/07 14:48:50;;;;;;;2.10;2.00;;;19.70;38.00;;;;;;5055218;28;20227;-66
2022/05/07 14:51:17;;;;;;;2.00;1.90;;;19.80;38.50;;;;;;5054853;28;20200;-66
2022/05/07 14:53:46;;;;;;;2.67;2.00;;;20.00;39.00;;;;;;5055575;28;20207;-66
2022/05/07 14:56:13;;;;;;;2.55;2.35;;;20.00;36.30;;;;;;5055726;28;20307;-67
2022/05/07 14:58:41;;;;;;;3.03;2.50;;;19.90;35.40;;;;;;5054584;28;20313;-67
2022/05/07 15:01:09;;;;;;;2.67;2.33;;;19.80;36.10;;;;;;5054932;28;20467;-70
2022/05/07 15:03:36;;;;;;;2.20;2.15;;;19.80;37.10;;;;;;5055157;28;20227;-65
2022/05/07 15:06:03;;;;;;;2.13;2.03;;;19.80;37.10;;;;;;5054131;28;20287;-66
2022/05/07 15:11:19;;;;;;;2.67;2.45;;;19.70;35.80;;;;;;5055234;28;20597;-65
2022/05/07 15:13:46;;;;;;;2.60;2.50;;;19.60;35.40;;;;;;5055059;28;20199;-66
2022/05/07 15:16:13;;;;;;;2.67;2.47;;;19.40;36.00;;;;;;5054331;28;20267;-65
2022/05/07 15:18:40;;;;;;;2.90;2.70;;;19.20;35.60;;;;;;5053746;28;20722;-65
2022/05/07 15:21:07;;;;;;;2.38;2.17;;;19.20;36.60;;;;;;5054408;28;20283;-65
2022/05/07 15:23:34;;;;;;;2.83;2.63;;;19.10;37.10;;;;;;5053959;28;20750;-65
2022/05/07 15:26:01;;;;;;;2.53;2.42;;;19.10;36.80;;;;;;5054365;28;20274;-66
2022/05/07 15:28:29;;;;;;;2.95;2.72;;;19.00;37.00;;;;;;5053582;28;20711;-65
2022/05/07 15:30:56;;;;;;;2.60;2.40;;;19.00;36.70;;;;;;5053863;28;20200;-66
2022/05/07 15:38:52;;;;;;;2.30;2.10;;;18.90;39.50;;;;;;5053796;28;20215;-66
2022/05/07 15:41:19;;;;;;;2.50;2.30;;;18.90;39.60;;;;;;5054048;28;20204;-66
2022/05/07 15:43:48;;;;;;;3.15;2.95;;;18.80;40.00;;;;;;5053954;28;20286;-65
2022/05/07 15:46:16;;;;;;;2.33;2.17;;;18.80;39.90;;;;;;5053593;28;20200;-65
2022/05/07 15:48:44;;;;;;;2.72;2.53;;;18.70;40.80;;;;;;5052975;28;20223;-66
2022/05/07 15:51:13;;;;;;;2.80;2.70;;;18.60;40.70;;;;;;5053325;28;20197;-65
2022/05/07 15:53:41;;;;;;;3.08;2.88;;;18.50;41.00;;;;;;5053230;28;20195;-65
2022/05/07 15:56:08;;;;;;;2.40;2.40;;;18.50;41.40;;;;;;5053177;28;20711;-65
2022/05/07 15:58:36;;;;;;;2.58;2.38;;;18.50;41.00;;;;;;5053943;28;20302;-66
2022/05/07 16:01:06;;;;;;;4.60;2.90;;;18.50;41.00;;;;;;5053511;28;20211;-65
2022/05/07 16:03:33;;;;;;;2.40;2.30;;;18.50;40.60;;;;;;5053858;28;20200;-66
2022/05/07 16:06:00;;;;;;;2.67;2.55;;;18.40;40.90;;;;;;5053230;28;20638;-66
2022/05/07 16:08:28;;;;;;;2.67;2.45;;;18.40;41.00;;;;;;5053441;28;20228;-66
2022/05/07 16:10:55;;;;;;;3.72;2.70;;;18.40;40.80;;;;;;5053208;28;20280;-65
2022/05/07 16:13:22;;;;;;;3.05;2.60;;;18.40;40.90;;;;;;5053187;28;20227;-64
2022/05/07 16:15:54;;;;;;;2.92;2.78;;;18.40;42.10;;;;;;5052968;28;20591;-64
2022/05/07 16:18:22;;;;;;;3.10;2.90;;;18.40;41.40;;;;;;5052676;28;20228;-65
2022/05/07 16:20:50;;;;;;;3.20;3.00;;;18.40;40.90;;;;;;5052881;28;20611;-65
2022/05/07 16:26:01;;;;;;;3.97;3.13;;;18.40;40.20;;;;;;5055174;28;20720;-65
2022/05/07 16:28:28;;;;;;;3.35;3.15;;;18.50;39.60;;;;;;5055210;28;20787;-65
2022/05/07 16:30:56;;;;;;;3.63;3.40;;;18.50;43.60;;;;;;5052763;28;20766;-65
2022/05/07 16:33:25;;;;;;;3.40;3.30;;;18.50;51.40;;;;;;5054587;28;20227;-66
2022/05/07 16:35:53;;;;;;;4.25;4.05;;;18.50;64.00;;;;;;5057321;28;20196;-66
2022/05/07 16:38:20;;;;;;;4.38;4.15;;;18.50;74.30;;;;;;5056519;28;20565;-66
2022/05/07 16:40:47;;;;;;;4.93;4.63;;;18.60;84.60;;;;;;5056748;28;20283;-66
2022/05/07 16:43:15;;;;;;;5.47;5.07;;;18.50;91.90;;;;;;5056451;28;20200;-66
2022/05/07 16:45:42;;;;;;;5.60;5.10;;;18.50;96.10;;;;;;5056672;28;20235;-66
2022/05/07 16:48:09;;;;;;;4.78;4.47;;;18.40;99.80;;;;;;5057341;28;20220;-67
2022/05/07 16:50:38;;;;;;;5.43;5.07;;;18.40;99.90;;;;;;5056271;28;20218;-65
2022/05/07 16:53:05;;;;;;;5.07;4.78;;;18.30;99.90;;;;;;5056693;28;20254;-66
2022/05/07 16:55:33;;;;;;;5.18;4.85;;;18.40;99.90;;;;;;5057710;28;20196;-66
2022/05/07 16:58:00;;;;;;;5.22;4.93;;;18.40;99.90;;;;;;5056617;28;20250;-67
2022/05/07 17:00:27;;;;;;;5.00;4.70;;;18.40;99.90;;;;;;5060762;28;20254;-66
2022/05/07 17:02:56;;;;;;;5.07;4.78;;;18.40;99.90;;;;;;5060838;28;20216;-67
2022/05/07 17:05:24;;;;;;;6.43;5.85;;;18.50;99.90;;;;;;5057128;28;20602;-66
2022/05/07 17:07:52;;;;;;;5.97;5.50;;;18.40;99.90;;;;;;5056422;28;20749;-66
2022/05/07 17:10:20;;;;;;;5.82;5.47;;;18.20;99.90;;;;;;5056924;28;20236;-66
2022/05/07 17:12:47;;;;;;;5.35;5.05;;;18.10;99.90;;;;;;5056745;28;20204;-65
2022/05/07 17:15:14;;;;;;;5.32;5.03;;;18.10;99.90;;;;;;5056651;28;20291;-65
2022/05/07 17:17:41;;;;;;;5.32;5.00;;;17.90;99.90;;;;;;5056341;28;20230;-65
2022/05/07 17:20:09;;;;;;;5.60;5.20;;;17.90;99.90;;;;;;5059331;28;20292;-65
2022/05/07 17:22:36;;;;;;;5.68;5.28;;;17.90;99.90;;;;;;5059883;28;20200;-64
2022/05/07 17:25:06;;;;;;;5.35;4.85;;;17.80;99.90;;;;;;5061040;28;20587;-64
2022/05/07 17:27:33;;;;;;;5.35;5.03;;;17.70;99.90;;;;;;5062730;28;20217;-66
2022/05/07 17:30:00;;;;;;;7.10;6.50;;;17.70;99.90;;;;;;5060185;28;20576;-65
2022/05/07 17:32:27;;;;;;;6.60;5.95;;;17.50;99.90;;;;;;5061093;28;20211;-65
2022/05/07 17:34:53;;;;;;;5.85;5.38;;;17.30;99.90;;;;;;5060669;28;20205;-65
2022/05/07 17:37:20;;;;;;;5.85;5.38;;;17.10;99.90;;;;;;5060049;28;20292;-66
2022/05/07 17:39:47;;;;;;;5.70;5.32;;;17.10;99.90;;;;;;5060922;28;20283;-65
2022/05/07 17:42:15;;;;;;;5.97;5.55;;;16.90;99.90;;;;;;5057441;28;20287;-65
2022/05/07 17:44:42;;;;;;;5.90;5.50;;;16.80;99.90;;;;;;5056086;28;20250;-65
2022/05/07 17:47:09;;;;;;;5.63;5.22;;;16.70;99.90;;;;;;5056467;28;20232;-66
2022/05/07 17:49:36;;;;;;;5.55;5.13;;;16.70;99.90;;;;;;5057092;28;20619;-66
2022/05/07 17:52:04;;;;;;;5.50;5.10;;;16.60;99.90;;;;;;5055982;28;20223;-65
2022/05/07 17:54:31;;;;;;;5.57;5.22;;;16.60;99.90;;;;;;5055734;28;20751;-65
2022/05/07 17:56:58;;;;;;;5.30;4.90;;;16.60;99.90;;;;;;5055908;28;20307;-66
2022/05/07 17:59:26;;;;;;;5.35;5.00;;;16.60;99.90;;;;;;5056136;28;20189;-65
2022/05/07 18:01:54;;;;;;;5.40;5.10;;;16.60;99.90;;;;;;5056269;28;20270;-65
2022/05/07 18:04:23;;;;;;;5.47;4.97;;;16.60;99.90;;;;;;5056115;28;20659;-65
2022/05/07 18:06:50;;;;;;;6.85;6.30;;;16.60;99.90;;;;;;5055432;28;20287;-66
2022/05/07 18:09:18;;;;;;;7.68;7.00;;;16.60;99.90;;;;;;5055343;28;20240;-65
2022/05/07 18:11:45;;;;;;;7.53;6.82;;;16.60;99.90;;;;;;5054756;28;20292;-65
2022/05/07 18:14:14;;;;;;;8.52;7.82;;;16.60;99.90;;;;;;5055351;28;20204;-65
2022/05/07 18:16:43;;;;;;;8.00;7.30;;;16.60;99.90;;;;;;5055340;28;20197;-65
2022/05/07 18:19:10;;;;;;;7.10;6.50;;;16.50;99.90;;;;;;5054869;28;20323;-65
2022/05/07 18:21:39;;;;;;;7.05;6.45;;;16.50;99.90;;;;;;5055717;28;20244;-65
2022/05/07 18:24:08;;;;;;;6.65;6.15;;;16.50;99.90;;;;;;5055415;28;20208;-67
2022/05/07 18:26:35;;;;;;;5.97;5.57;;;16.50;99.90;;;;;;5055109;28;20295;-67
2022/05/07 18:29:04;;;;;;;6.18;5.68;;;16.40;99.90;;;;;;5055646;28;20289;-66
2022/05/07 18:31:31;;;;;;;5.90;5.57;;;16.40;99.90;;;;;;5054871;28;20223;-66
2022/05/07 18:33:59;;;;;;;5.20;4.90;;;16.30;99.90;;;;;;5055410;28;20287;-66
2022/05/07 18:44:39;;;;;;;5.05;4.75;;;16.10;99.90;;;;;;5055147;28;20215;-65
2022/05/07 18:47:08;;;;;;;5.53;5.22;;;16.10;99.90;;;;;;5055155;28;20294;-66
2022/05/07 18:49:37;;;;;;;5.82;5.35;;;16.00;99.90;;;;;;5054671;28;20680;-67
2022/05/07 18:52:04;;;;;;;5.22;4.82;;;15.90;99.90;;;;;;5055062;28;20255;-66
2022/05/07 18:54:31;;;;;;;6.03;5.57;;;15.90;99.90;;;;;;5054494;28;20207;-66
2022/05/07 18:59:42;;;;;;;5.95;5.50;;;15.80;99.90;;;;;;5054547;28;20247;-65
2022/05/07 19:02:09;;;;;;;5.50;5.10;;;15.70;99.90;;;;;;5054481;28;20683;-66
2022/05/07 19:04:38;;;;;;;5.47;5.07;;;15.60;99.90;;;;;;5054380;28;20589;-66
2022/05/07 19:07:05;;;;;;;6.05;5.65;;;15.50;99.90;;;;;;5054608;28;20287;-66
2022/05/07 19:09:33;;;;;;;5.22;4.93;;;15.40;99.90;;;;;;5054666;28;20215;-66
2022/05/07 19:12:01;;;;;;;5.20;4.90;;;15.40;99.90;;;;;;5054953;28;20250;-66
2022/05/07 19:14:28;;;;;;;5.40;5.10;;;15.30;99.90;;;;;;5054478;28;20209;-65
2022/05/07 19:16:56;;;;;;;5.40;5.05;;;15.20;99.90;;;;;;5054564;28;20296;-65
2022/05/07 19:19:23;;;;;;;4.53;4.32;;;15.20;99.90;;;;;;5054329;28;20207;-65
2022/05/07 19:21:51;;;;;;;5.80;5.13;;;15.10;99.90;;;;;;5053713;28;20234;-65
2022/05/07 19:24:19;;;;;;;5.47;5.18;;;15.10;99.90;;;;;;5054197;28;20292;-66
2022/05/07 19:26:48;;;;;;;6.82;5.68;;;15.00;99.90;;;;;;5054288;28;20209;-65
2022/05/07 19:29:15;;;;;;;6.10;5.70;;;15.00;99.90;;;;;;5054255;28;20217;-65
2022/05/07 19:31:42;;;;;;;5.88;5.47;;;15.00;99.90;;;;;;5054508;28;20227;-64
2022/05/07 19:34:09;;;;;;;6.20;5.80;;;14.90;99.90;;;;;;5054316;28;20227;-66
2022/05/07 19:36:37;;;;;;;6.13;5.72;;;14.90;99.90;;;;;;5053901;28;20216;-65
2022/05/07 19:39:05;;;;;;;5.53;5.13;;;14.90;99.90;;;;;;5054214;28;20220;-65
2022/05/07 19:41:32;;;;;;;5.50;5.00;;;14.90;99.90;;;;;;5054253;28;20228;-65
2022/05/07 19:43:59;;;;;;;6.30;5.90;;;14.90;99.90;;;;;;5054174;28;20283;-65
2022/05/07 19:46:27;;;;;;;6.53;6.03;;;14.90;99.90;;;;;;5054262;28;20299;-66
2022/05/07 19:51:26;;;;;;;7.25;6.68;;;14.80;99.90;;;;;;5013277;28;20295;-67
2022/05/07 19:53:53;;;;;;;6.28;5.88;;;14.80;99.90;;;;;;5014110;28;20573;-67
2022/05/07 19:56:21;;;;;;;6.55;6.15;;;14.80;99.90;;;;;;5013888;28;20212;-68
2022/05/07 19:58:48;;;;;;;5.95;5.55;;;14.80;99.90;;;;;;5013865;28;20673;-68
2022/05/07 20:01:15;;;;;;;5.53;5.22;;;14.80;99.90;;;;;;4994591;28;20237;-68
2022/05/07 20:03:42;;;;;;;6.13;5.72;;;14.80;99.90;;;;;;4994262;28;20626;-67
2022/05/07 20:06:09;;;;;;;5.18;4.88;;;14.80;99.90;;;;;;4994296;28;20203;-67
2022/05/07 20:08:36;;;;;;;6.05;5.65;;;14.70;99.90;;;;;;4994189;28;20195;-67
2022/05/07 20:11:03;;;;;;;5.47;5.15;;;14.70;99.90;;;;;;4994152;28;20314;-67
2022/05/07 20:13:31;;;;;;;5.05;4.75;;;14.70;99.90;;;;;;4994043;28;20222;-68
2022/05/07 20:15:59;;;;;;;5.05;4.75;;;14.70;99.90;;;;;;4994182;28;20208;-67
2022/05/07 20:18:27;;;;;;;5.18;4.88;;;14.70;99.90;;;;;;4994633;28;20244;-69